sensor_id;sensor_type;location;lat;lon;timestamp;temperature;humidity
41720;DHT22;27405;53.316;-6.294;2023-02-26T00:00:26;7.60;92.70
41720;DHT22;27405;53.316;-6.294;2023-02-26T00:02:51;7.60;92.80
41720;DHT22;27405;53.316;-6.294;2023-02-26T00:05:17;7.60;92.60
41720;DHT22;27405;53.316;-6.294;2023-02-26T00:07:43;7.60;92.40
41720;DHT22;27405;53.316;-6.294;2023-02-26T00:10:11;7.60;92.30
41720;DHT22;27405;53.316;-6.294;2023-02-26T00:12:37;7.60;92.10
41720;DHT22;27405;53.316;-6.294;2023-02-26T00:15:04;7.60;92.20
41720;DHT22;27405;53.316;-6.294;2023-02-26T00:20:20;7.60;92.40
41720;DHT22;27405;53.316;-6.294;2023-02-26T00:22:46;7.60;92.30
41720;DHT22;27405;53.316;-6.294;2023-02-26T00:25:12;7.60;92.20
41720;DHT22;27405;53.316;-6.294;2023-02-26T00:27:38;7.60;92.30
41720;DHT22;27405;53.316;-6.294;2023-02-26T00:30:07;7.50;92.30
41720;DHT22;27405;53.316;-6.294;2023-02-26T00:32:34;7.60;92.30
41720;DHT22;27405;53.316;-6.294;2023-02-26T00:35:00;7.60;92.30
41720;DHT22;27405;53.316;-6.294;2023-02-26T00:40:14;7.50;92.50
41720;DHT22;27405;53.316;-6.294;2023-02-26T00:42:44;7.50;92.30
41720;DHT22;27405;53.316;-6.294;2023-02-26T00:45:11;7.50;92.30
41720;DHT22;27405;53.316;-6.294;2023-02-26T00:47:51;7.50;92.10
41720;DHT22;27405;53.316;-6.294;2023-02-26T00:50:22;7.50;92.20
41720;DHT22;27405;53.316;-6.294;2023-02-26T00:53:15;7.50;92.20
41720;DHT22;27405;53.316;-6.294;2023-02-26T00:55:43;7.50;92.30
41720;DHT22;27405;53.316;-6.294;2023-02-26T00:58:08;7.50;92.40
41720;DHT22;27405;53.316;-6.294;2023-02-26T01:00:34;7.50;92.40
41720;DHT22;27405;53.316;-6.294;2023-02-26T01:03:00;7.50;92.50
41720;DHT22;27405;53.316;-6.294;2023-02-26T01:05:26;7.50;92.50
41720;DHT22;27405;53.316;-6.294;2023-02-26T01:08:05;7.50;92.50
41720;DHT22;27405;53.316;-6.294;2023-02-26T01:10:33;7.50;92.50
41720;DHT22;27405;53.316;-6.294;2023-02-26T01:12:59;7.50;92.60
41720;DHT22;27405;53.316;-6.294;2023-02-26T01:15:25;7.50;92.70
41720;DHT22;27405;53.316;-6.294;2023-02-26T01:20:48;7.40;93.10
41720;DHT22;27405;53.316;-6.294;2023-02-26T01:23:17;7.50;93.20
41720;DHT22;27405;53.316;-6.294;2023-02-26T01:28:22;7.40;93.50
41720;DHT22;27405;53.316;-6.294;2023-02-26T01:30:49;7.40;93.70
41720;DHT22;27405;53.316;-6.294;2023-02-26T01:33:31;7.40;93.80
41720;DHT22;27405;53.316;-6.294;2023-02-26T01:36:07;7.40;93.90
41720;DHT22;27405;53.316;-6.294;2023-02-26T01:41:37;7.40;94.00
41720;DHT22;27405;53.316;-6.294;2023-02-26T01:49:58;7.40;94.20
41720;DHT22;27405;53.316;-6.294;2023-02-26T01:55:00;7.40;94.10
41720;DHT22;27405;53.316;-6.294;2023-02-26T01:57:25;7.40;94.10
41720;DHT22;27405;53.316;-6.294;2023-02-26T01:59:51;7.30;94.00
41720;DHT22;27405;53.316;-6.294;2023-02-26T02:02:21;7.30;93.80
41720;DHT22;27405;53.316;-6.294;2023-02-26T02:04:48;7.20;93.70
41720;DHT22;27405;53.316;-6.294;2023-02-26T02:07:14;7.00;93.70
41720;DHT22;27405;53.316;-6.294;2023-02-26T02:09:40;6.90;93.70
41720;DHT22;27405;53.316;-6.294;2023-02-26T02:17:36;6.70;93.80
41720;DHT22;27405;53.316;-6.294;2023-02-26T02:34:11;6.40;93.50
41720;DHT22;27405;53.316;-6.294;2023-02-26T02:39:20;6.30;93.50
41720;DHT22;27405;53.316;-6.294;2023-02-26T02:41:53;6.30;93.60
41720;DHT22;27405;53.316;-6.294;2023-02-26T02:44:22;6.30;93.70
41720;DHT22;27405;53.316;-6.294;2023-02-26T02:46:51;6.30;93.80
41720;DHT22;27405;53.316;-6.294;2023-02-26T02:49:42;6.20;93.90
41720;DHT22;27405;53.316;-6.294;2023-02-26T02:52:32;6.20;94.10
41720;DHT22;27405;53.316;-6.294;2023-02-26T02:55:21;6.20;94.00
41720;DHT22;27405;53.316;-6.294;2023-02-26T02:58:01;6.30;94.00
41720;DHT22;27405;53.316;-6.294;2023-02-26T03:00:31;6.30;94.00
41720;DHT22;27405;53.316;-6.294;2023-02-26T03:05:25;6.40;94.00
41720;DHT22;27405;53.316;-6.294;2023-02-26T03:08:07;6.50;93.90
41720;DHT22;27405;53.316;-6.294;2023-02-26T03:10:34;6.50;93.80
41720;DHT22;27405;53.316;-6.294;2023-02-26T03:13:00;6.60;93.90
41720;DHT22;27405;53.316;-6.294;2023-02-26T03:15:45;6.70;93.80
41720;DHT22;27405;53.316;-6.294;2023-02-26T03:18:22;6.80;93.90
41720;DHT22;27405;53.316;-6.294;2023-02-26T03:21:11;6.80;93.80
41720;DHT22;27405;53.316;-6.294;2023-02-26T03:23:49;6.90;93.60
41720;DHT22;27405;53.316;-6.294;2023-02-26T03:26:26;6.90;93.50
41720;DHT22;27405;53.316;-6.294;2023-02-26T03:29:01;6.90;93.40
41720;DHT22;27405;53.316;-6.294;2023-02-26T03:31:36;6.90;93.40
41720;DHT22;27405;53.316;-6.294;2023-02-26T03:34:23;7.00;93.40
41720;DHT22;27405;53.316;-6.294;2023-02-26T03:36:55;6.90;93.10
41720;DHT22;27405;53.316;-6.294;2023-02-26T03:44:29;6.80;92.70
41720;DHT22;27405;53.316;-6.294;2023-02-26T03:47:02;6.80;92.70
41720;DHT22;27405;53.316;-6.294;2023-02-26T03:49:33;6.80;92.80
41720;DHT22;27405;53.316;-6.294;2023-02-26T03:52:02;6.80;92.80
41720;DHT22;27405;53.316;-6.294;2023-02-26T03:54:46;6.80;92.90
41720;DHT22;27405;53.316;-6.294;2023-02-26T03:57:14;6.80;92.90
41720;DHT22;27405;53.316;-6.294;2023-02-26T03:59:40;6.80;92.90
41720;DHT22;27405;53.316;-6.294;2023-02-26T04:02:10;6.80;92.90
41720;DHT22;27405;53.316;-6.294;2023-02-26T04:04:45;6.80;93.00
41720;DHT22;27405;53.316;-6.294;2023-02-26T04:07:13;6.90;93.10
41720;DHT22;27405;53.316;-6.294;2023-02-26T04:09:45;6.90;93.20
41720;DHT22;27405;53.316;-6.294;2023-02-26T04:12:11;6.90;93.30
41720;DHT22;27405;53.316;-6.294;2023-02-26T04:14:37;7.00;93.40
41720;DHT22;27405;53.316;-6.294;2023-02-26T04:17:04;7.00;93.40
41720;DHT22;27405;53.316;-6.294;2023-02-26T04:19:30;7.00;93.50
41720;DHT22;27405;53.316;-6.294;2023-02-26T04:21:55;7.10;93.50
41720;DHT22;27405;53.316;-6.294;2023-02-26T04:24:21;7.10;93.60
41720;DHT22;27405;53.316;-6.294;2023-02-26T04:26:47;7.10;93.60
41720;DHT22;27405;53.316;-6.294;2023-02-26T04:29:12;7.20;93.60
41720;DHT22;27405;53.316;-6.294;2023-02-26T04:31:39;7.10;93.60
41720;DHT22;27405;53.316;-6.294;2023-02-26T04:34:04;7.20;93.60
41720;DHT22;27405;53.316;-6.294;2023-02-26T04:36:30;7.20;93.60
41720;DHT22;27405;53.316;-6.294;2023-02-26T04:38:56;7.20;93.50
41720;DHT22;27405;53.316;-6.294;2023-02-26T04:41:21;7.20;93.40
41720;DHT22;27405;53.316;-6.294;2023-02-26T04:43:47;7.20;93.30
41720;DHT22;27405;53.316;-6.294;2023-02-26T04:46:13;7.20;93.20
41720;DHT22;27405;53.316;-6.294;2023-02-26T04:48:39;7.20;93.10
41720;DHT22;27405;53.316;-6.294;2023-02-26T04:51:05;7.20;93.10
41720;DHT22;27405;53.316;-6.294;2023-02-26T04:53:31;7.20;93.10
41720;DHT22;27405;53.316;-6.294;2023-02-26T04:55:56;7.10;93.00
41720;DHT22;27405;53.316;-6.294;2023-02-26T04:58:22;7.20;93.00
41720;DHT22;27405;53.316;-6.294;2023-02-26T05:00:49;7.20;92.80
41720;DHT22;27405;53.316;-6.294;2023-02-26T05:03:15;7.20;92.70
41720;DHT22;27405;53.316;-6.294;2023-02-26T05:05:41;7.20;92.50
41720;DHT22;27405;53.316;-6.294;2023-02-26T05:08:07;7.10;92.50
41720;DHT22;27405;53.316;-6.294;2023-02-26T05:10:33;7.10;92.50
41720;DHT22;27405;53.316;-6.294;2023-02-26T05:12:58;7.10;92.50
41720;DHT22;27405;53.316;-6.294;2023-02-26T05:15:24;7.10;92.50
41720;DHT22;27405;53.316;-6.294;2023-02-26T05:17:50;7.10;92.50
41720;DHT22;27405;53.316;-6.294;2023-02-26T05:20:15;7.10;92.60
41720;DHT22;27405;53.316;-6.294;2023-02-26T05:22:41;7.10;92.60
41720;DHT22;27405;53.316;-6.294;2023-02-26T05:25:08;7.10;92.60
41720;DHT22;27405;53.316;-6.294;2023-02-26T05:27:36;7.10;92.60
41720;DHT22;27405;53.316;-6.294;2023-02-26T05:30:03;7.10;92.50
41720;DHT22;27405;53.316;-6.294;2023-02-26T05:32:28;7.10;92.50
41720;DHT22;27405;53.316;-6.294;2023-02-26T05:34:54;7.10;92.40
41720;DHT22;27405;53.316;-6.294;2023-02-26T05:37:19;7.20;92.40
41720;DHT22;27405;53.316;-6.294;2023-02-26T05:39:45;7.20;92.40
41720;DHT22;27405;53.316;-6.294;2023-02-26T05:42:11;7.20;92.40
41720;DHT22;27405;53.316;-6.294;2023-02-26T05:44:36;7.20;92.40
41720;DHT22;27405;53.316;-6.294;2023-02-26T05:47:02;7.20;92.30
41720;DHT22;27405;53.316;-6.294;2023-02-26T05:49:28;7.20;92.30
41720;DHT22;27405;53.316;-6.294;2023-02-26T05:51:53;7.20;92.30
41720;DHT22;27405;53.316;-6.294;2023-02-26T05:54:19;7.20;92.40
41720;DHT22;27405;53.316;-6.294;2023-02-26T05:56:45;7.20;92.40
41720;DHT22;27405;53.316;-6.294;2023-02-26T05:59:11;7.20;92.30
41720;DHT22;27405;53.316;-6.294;2023-02-26T06:01:36;7.20;92.30
41720;DHT22;27405;53.316;-6.294;2023-02-26T06:04:04;7.20;92.40
41720;DHT22;27405;53.316;-6.294;2023-02-26T06:06:30;7.20;92.50
41720;DHT22;27405;53.316;-6.294;2023-02-26T06:08:55;7.20;92.60
41720;DHT22;27405;53.316;-6.294;2023-02-26T06:11:21;7.20;92.60
41720;DHT22;27405;53.316;-6.294;2023-02-26T06:13:48;7.20;92.60
41720;DHT22;27405;53.316;-6.294;2023-02-26T06:16:13;7.20;92.50
41720;DHT22;27405;53.316;-6.294;2023-02-26T06:18:39;7.20;92.40
41720;DHT22;27405;53.316;-6.294;2023-02-26T06:21:05;7.20;92.40
41720;DHT22;27405;53.316;-6.294;2023-02-26T06:23:31;7.20;92.40
41720;DHT22;27405;53.316;-6.294;2023-02-26T06:25:56;7.20;92.30
41720;DHT22;27405;53.316;-6.294;2023-02-26T06:28:24;7.20;92.40
41720;DHT22;27405;53.316;-6.294;2023-02-26T06:30:51;7.20;92.30
41720;DHT22;27405;53.316;-6.294;2023-02-26T06:33:18;7.20;92.20
41720;DHT22;27405;53.316;-6.294;2023-02-26T06:35:44;7.20;92.20
41720;DHT22;27405;53.316;-6.294;2023-02-26T06:38:10;7.20;92.10
41720;DHT22;27405;53.316;-6.294;2023-02-26T06:40:35;7.20;92.10
41720;DHT22;27405;53.316;-6.294;2023-02-26T06:43:02;7.20;92.10
41720;DHT22;27405;53.316;-6.294;2023-02-26T06:45:27;7.20;92.00
41720;DHT22;27405;53.316;-6.294;2023-02-26T06:47:53;7.20;92.00
41720;DHT22;27405;53.316;-6.294;2023-02-26T06:50:19;7.20;92.00
41720;DHT22;27405;53.316;-6.294;2023-02-26T06:52:45;7.20;92.00
41720;DHT22;27405;53.316;-6.294;2023-02-26T06:55:11;7.20;92.00
41720;DHT22;27405;53.316;-6.294;2023-02-26T06:57:37;7.20;92.10
41720;DHT22;27405;53.316;-6.294;2023-02-26T07:00:04;7.20;92.20
41720;DHT22;27405;53.316;-6.294;2023-02-26T07:02:31;7.30;92.40
41720;DHT22;27405;53.316;-6.294;2023-02-26T07:04:56;7.30;92.60
41720;DHT22;27405;53.316;-6.294;2023-02-26T07:07:22;7.20;92.70
41720;DHT22;27405;53.316;-6.294;2023-02-26T07:09:48;7.20;92.70
41720;DHT22;27405;53.316;-6.294;2023-02-26T07:12:13;7.30;92.80
41720;DHT22;27405;53.316;-6.294;2023-02-26T07:14:39;7.20;92.90
41720;DHT22;27405;53.316;-6.294;2023-02-26T07:17:07;7.30;93.10
41720;DHT22;27405;53.316;-6.294;2023-02-26T07:19:33;7.20;93.00
41720;DHT22;27405;53.316;-6.294;2023-02-26T07:21:59;7.20;92.90
41720;DHT22;27405;53.316;-6.294;2023-02-26T07:24:26;7.20;92.90
41720;DHT22;27405;53.316;-6.294;2023-02-26T07:26:52;7.20;92.90
41720;DHT22;27405;53.316;-6.294;2023-02-26T07:29:18;7.30;93.00
41720;DHT22;27405;53.316;-6.294;2023-02-26T07:31:43;7.20;93.10
41720;DHT22;27405;53.316;-6.294;2023-02-26T07:34:09;7.20;93.20
41720;DHT22;27405;53.316;-6.294;2023-02-26T07:36:35;7.20;93.30
41720;DHT22;27405;53.316;-6.294;2023-02-26T07:39:00;7.30;93.40
41720;DHT22;27405;53.316;-6.294;2023-02-26T07:41:26;7.30;93.40
41720;DHT22;27405;53.316;-6.294;2023-02-26T07:43:52;7.20;93.50
41720;DHT22;27405;53.316;-6.294;2023-02-26T07:46:18;7.30;93.50
41720;DHT22;27405;53.316;-6.294;2023-02-26T07:48:43;7.30;93.60
41720;DHT22;27405;53.316;-6.294;2023-02-26T07:51:09;7.30;93.70
41720;DHT22;27405;53.316;-6.294;2023-02-26T07:53:35;7.30;93.70
41720;DHT22;27405;53.316;-6.294;2023-02-26T07:56:01;7.30;93.90
41720;DHT22;27405;53.316;-6.294;2023-02-26T07:58:27;7.30;94.00
41720;DHT22;27405;53.316;-6.294;2023-02-26T08:00:52;7.30;94.10
41720;DHT22;27405;53.316;-6.294;2023-02-26T08:03:19;7.30;94.10
41720;DHT22;27405;53.316;-6.294;2023-02-26T08:05:44;7.30;94.20
41720;DHT22;27405;53.316;-6.294;2023-02-26T08:08:10;7.30;94.20
41720;DHT22;27405;53.316;-6.294;2023-02-26T08:10:36;7.30;94.30
41720;DHT22;27405;53.316;-6.294;2023-02-26T08:13:02;7.40;94.30
41720;DHT22;27405;53.316;-6.294;2023-02-26T08:15:27;7.40;94.20
41720;DHT22;27405;53.316;-6.294;2023-02-26T08:17:53;7.40;94.10
41720;DHT22;27405;53.316;-6.294;2023-02-26T08:20:19;7.40;94.10
41720;DHT22;27405;53.316;-6.294;2023-02-26T08:22:45;7.40;94.00
41720;DHT22;27405;53.316;-6.294;2023-02-26T08:25:10;7.40;94.00
41720;DHT22;27405;53.316;-6.294;2023-02-26T08:27:37;7.50;94.00
41720;DHT22;27405;53.316;-6.294;2023-02-26T08:30:04;7.40;94.00
41720;DHT22;27405;53.316;-6.294;2023-02-26T08:32:30;7.50;94.00
41720;DHT22;27405;53.316;-6.294;2023-02-26T08:34:55;7.50;94.00
41720;DHT22;27405;53.316;-6.294;2023-02-26T08:37:21;7.50;93.90
41720;DHT22;27405;53.316;-6.294;2023-02-26T08:39:50;7.60;94.00
41720;DHT22;27405;53.316;-6.294;2023-02-26T08:42:16;7.60;94.00
41720;DHT22;27405;53.316;-6.294;2023-02-26T08:44:45;7.60;94.00
41720;DHT22;27405;53.316;-6.294;2023-02-26T08:47:11;7.70;94.00
41720;DHT22;27405;53.316;-6.294;2023-02-26T08:49:36;7.70;94.00
41720;DHT22;27405;53.316;-6.294;2023-02-26T08:52:02;7.70;94.20
41720;DHT22;27405;53.316;-6.294;2023-02-26T08:54:28;7.80;93.80
41720;DHT22;27405;53.316;-6.294;2023-02-26T08:56:53;7.80;93.70
41720;DHT22;27405;53.316;-6.294;2023-02-26T08:59:24;7.80;93.60
41720;DHT22;27405;53.316;-6.294;2023-02-26T09:01:50;7.80;93.60
41720;DHT22;27405;53.316;-6.294;2023-02-26T09:04:17;7.80;93.70
41720;DHT22;27405;53.316;-6.294;2023-02-26T09:06:43;7.80;93.70
41720;DHT22;27405;53.316;-6.294;2023-02-26T09:09:09;7.80;93.80
41720;DHT22;27405;53.316;-6.294;2023-02-26T09:11:35;7.80;93.90
41720;DHT22;27405;53.316;-6.294;2023-02-26T09:14:01;7.80;94.10
41720;DHT22;27405;53.316;-6.294;2023-02-26T09:16:28;7.80;94.30
41720;DHT22;27405;53.316;-6.294;2023-02-26T09:18:54;7.80;94.50
41720;DHT22;27405;53.316;-6.294;2023-02-26T09:21:20;7.90;94.60
41720;DHT22;27405;53.316;-6.294;2023-02-26T09:23:46;8.00;95.00
41720;DHT22;27405;53.316;-6.294;2023-02-26T09:26:12;8.00;94.70
41720;DHT22;27405;53.316;-6.294;2023-02-26T09:28:39;8.10;94.90
41720;DHT22;27405;53.316;-6.294;2023-02-26T09:31:05;8.00;95.00
41720;DHT22;27405;53.316;-6.294;2023-02-26T09:33:34;8.10;95.20
41720;DHT22;27405;53.316;-6.294;2023-02-26T09:36:01;8.10;95.30
41720;DHT22;27405;53.316;-6.294;2023-02-26T09:38:26;8.10;95.40
41720;DHT22;27405;53.316;-6.294;2023-02-26T09:40:59;8.10;95.50
41720;DHT22;27405;53.316;-6.294;2023-02-26T09:48:50;8.20;95.50
41720;DHT22;27405;53.316;-6.294;2023-02-26T09:51:21;8.20;95.30
41720;DHT22;27405;53.316;-6.294;2023-02-26T09:53:49;8.20;95.20
41720;DHT22;27405;53.316;-6.294;2023-02-26T09:56:21;8.10;95.10
41720;DHT22;27405;53.316;-6.294;2023-02-26T09:58:48;8.10;95.00
41720;DHT22;27405;53.316;-6.294;2023-02-26T10:11:56;8.30;95.40
41720;DHT22;27405;53.316;-6.294;2023-02-26T10:14:34;8.40;95.30
41720;DHT22;27405;53.316;-6.294;2023-02-26T10:17:07;8.50;95.30
41720;DHT22;27405;53.316;-6.294;2023-02-26T10:19:42;8.50;95.30
41720;DHT22;27405;53.316;-6.294;2023-02-26T10:23:22;8.60;95.30
41720;DHT22;27405;53.316;-6.294;2023-02-26T10:25:36;8.60;95.20
41720;DHT22;27405;53.316;-6.294;2023-02-26T10:28:19;8.60;95.10
41720;DHT22;27405;53.316;-6.294;2023-02-26T10:30:58;8.60;95.00
41720;DHT22;27405;53.316;-6.294;2023-02-26T10:39:37;8.80;95.20
41720;DHT22;27405;53.316;-6.294;2023-02-26T10:42:31;8.90;95.20
41720;DHT22;27405;53.316;-6.294;2023-02-26T10:48:24;9.10;95.10
41720;DHT22;27405;53.316;-6.294;2023-02-26T10:50:55;9.20;95.00
41720;DHT22;27405;53.316;-6.294;2023-02-26T10:53:22;9.30;95.00
41720;DHT22;27405;53.316;-6.294;2023-02-26T10:56:08;9.40;95.00
41720;DHT22;27405;53.316;-6.294;2023-02-26T10:58:35;9.40;94.70
41720;DHT22;27405;53.316;-6.294;2023-02-26T11:01:01;9.40;94.40
41720;DHT22;27405;53.316;-6.294;2023-02-26T11:03:35;9.40;94.30
41720;DHT22;27405;53.316;-6.294;2023-02-26T11:06:02;9.40;94.30
41720;DHT22;27405;53.316;-6.294;2023-02-26T11:08:43;9.40;94.10
41720;DHT22;27405;53.316;-6.294;2023-02-26T11:11:10;9.30;94.10
41720;DHT22;27405;53.316;-6.294;2023-02-26T11:13:37;9.20;94.00
41720;DHT22;27405;53.316;-6.294;2023-02-26T11:16:14;9.20;94.00
41720;DHT22;27405;53.316;-6.294;2023-02-26T11:18:52;9.10;93.90
41720;DHT22;27405;53.316;-6.294;2023-02-26T11:21:25;9.10;93.90
41720;DHT22;27405;53.316;-6.294;2023-02-26T11:24:00;9.10;93.90
41720;DHT22;27405;53.316;-6.294;2023-02-26T11:26:31;9.20;94.10
41720;DHT22;27405;53.316;-6.294;2023-02-26T11:28:58;9.20;94.10
41720;DHT22;27405;53.316;-6.294;2023-02-26T11:31:25;9.30;94.00
41720;DHT22;27405;53.316;-6.294;2023-02-26T11:34:02;9.30;93.80
41720;DHT22;27405;53.316;-6.294;2023-02-26T11:36:31;9.30;93.70
41720;DHT22;27405;53.316;-6.294;2023-02-26T11:39:03;9.40;93.70
41720;DHT22;27405;53.316;-6.294;2023-02-26T11:41:29;9.40;93.70
41720;DHT22;27405;53.316;-6.294;2023-02-26T11:44:15;9.40;93.70
41720;DHT22;27405;53.316;-6.294;2023-02-26T11:46:46;9.50;93.70
41720;DHT22;27405;53.316;-6.294;2023-02-26T11:49:16;9.60;93.70
41720;DHT22;27405;53.316;-6.294;2023-02-26T11:51:46;9.60;93.70
41720;DHT22;27405;53.316;-6.294;2023-02-26T11:54:21;9.70;93.80
41720;DHT22;27405;53.316;-6.294;2023-02-26T11:56:47;9.80;93.70
41720;DHT22;27405;53.316;-6.294;2023-02-26T11:59:23;9.80;93.50
41720;DHT22;27405;53.316;-6.294;2023-02-26T12:01:51;9.80;93.40
41720;DHT22;27405;53.316;-6.294;2023-02-26T12:04:20;9.80;93.40
41720;DHT22;27405;53.316;-6.294;2023-02-26T12:06:49;9.60;93.10
41720;DHT22;27405;53.316;-6.294;2023-02-26T12:09:15;9.50;93.20
41720;DHT22;27405;53.316;-6.294;2023-02-26T12:11:59;9.40;93.30
41720;DHT22;27405;53.316;-6.294;2023-02-26T12:17:46;9.40;93.80
41720;DHT22;27405;53.316;-6.294;2023-02-26T12:28:46;9.60;93.80
41720;DHT22;27405;53.316;-6.294;2023-02-26T12:34:11;9.90;93.80
41720;DHT22;27405;53.316;-6.294;2023-02-26T12:45:06;10.40;93.20
41720;DHT22;27405;53.316;-6.294;2023-02-26T12:55:22;10.20;92.30
41720;DHT22;27405;53.316;-6.294;2023-02-26T13:08:47;9.70;92.20
41720;DHT22;27405;53.316;-6.294;2023-02-26T13:20:01;9.40;92.80
41720;DHT22;27405;53.316;-6.294;2023-02-26T13:22:32;9.40;92.90
41720;DHT22;27405;53.316;-6.294;2023-02-26T13:27:44;9.30;93.20
41720;DHT22;27405;53.316;-6.294;2023-02-26T13:30:22;9.20;93.30
41720;DHT22;27405;53.316;-6.294;2023-02-26T13:32:53;9.20;93.40
41720;DHT22;27405;53.316;-6.294;2023-02-26T13:37:54;9.20;93.40
41720;DHT22;27405;53.316;-6.294;2023-02-26T13:45:58;9.70;94.10
41720;DHT22;27405;53.316;-6.294;2023-02-26T13:51:46;10.30;93.90
41720;DHT22;27405;53.316;-6.294;2023-02-26T14:02:29;10.50;93.00
41720;DHT22;27405;53.316;-6.294;2023-02-26T14:04:58;10.50;92.90
41720;DHT22;27405;53.316;-6.294;2023-02-26T14:10:25;10.50;93.00
41720;DHT22;27405;53.316;-6.294;2023-02-26T14:13:19;10.60;92.90
41720;DHT22;27405;53.316;-6.294;2023-02-26T14:18:34;10.60;92.50
41720;DHT22;27405;53.316;-6.294;2023-02-26T14:24:35;10.50;92.50
41720;DHT22;27405;53.316;-6.294;2023-02-26T14:27:33;10.40;92.40
41720;DHT22;27405;53.316;-6.294;2023-02-26T14:30:29;10.40;92.50
41720;DHT22;27405;53.316;-6.294;2023-02-26T14:35:45;10.30;92.20
41720;DHT22;27405;53.316;-6.294;2023-02-26T14:38:20;10.30;92.00
41720;DHT22;27405;53.316;-6.294;2023-02-26T14:41:03;10.20;91.90
41720;DHT22;27405;53.316;-6.294;2023-02-26T14:43:39;10.10;91.90
41720;DHT22;27405;53.316;-6.294;2023-02-26T14:46:07;10.00;91.80
41720;DHT22;27405;53.316;-6.294;2023-02-26T14:48:35;9.90;91.90
41720;DHT22;27405;53.316;-6.294;2023-02-26T14:53:43;10.00;92.00
41720;DHT22;27405;53.316;-6.294;2023-02-26T15:07:00;10.00;92.10
41720;DHT22;27405;53.316;-6.294;2023-02-26T15:09:48;10.00;92.00
41720;DHT22;27405;53.316;-6.294;2023-02-26T15:12:38;9.90;91.80
41720;DHT22;27405;53.316;-6.294;2023-02-26T15:25:41;9.50;91.20
41720;DHT22;27405;53.316;-6.294;2023-02-26T15:28:14;9.50;91.30
41720;DHT22;27405;53.316;-6.294;2023-02-26T15:30:45;9.50;91.30
41720;DHT22;27405;53.316;-6.294;2023-02-26T15:33:12;9.40;91.50
41720;DHT22;27405;53.316;-6.294;2023-02-26T15:35:41;9.40;91.70
41720;DHT22;27405;53.316;-6.294;2023-02-26T15:38:08;9.60;92.10
41720;DHT22;27405;53.316;-6.294;2023-02-26T15:40:35;9.70;92.00
41720;DHT22;27405;53.316;-6.294;2023-02-26T15:43:05;9.80;92.00
41720;DHT22;27405;53.316;-6.294;2023-02-26T15:45:39;9.80;91.90
41720;DHT22;27405;53.316;-6.294;2023-02-26T15:48:19;9.80;91.70
41720;DHT22;27405;53.316;-6.294;2023-02-26T15:50:48;9.80;91.60
41720;DHT22;27405;53.316;-6.294;2023-02-26T15:53:55;9.90;91.80
41720;DHT22;27405;53.316;-6.294;2023-02-26T15:56:29;9.90;91.80
41720;DHT22;27405;53.316;-6.294;2023-02-26T15:59:19;9.80;91.70
41720;DHT22;27405;53.316;-6.294;2023-02-26T16:01:48;9.70;91.60
41720;DHT22;27405;53.316;-6.294;2023-02-26T16:04:18;9.60;91.60
41720;DHT22;27405;53.316;-6.294;2023-02-26T16:06:55;9.60;91.70
41720;DHT22;27405;53.316;-6.294;2023-02-26T16:09:26;9.50;91.70
41720;DHT22;27405;53.316;-6.294;2023-02-26T16:11:56;9.40;91.80
41720;DHT22;27405;53.316;-6.294;2023-02-26T16:14:29;9.30;91.70
41720;DHT22;27405;53.316;-6.294;2023-02-26T16:16:56;9.20;91.70
41720;DHT22;27405;53.316;-6.294;2023-02-26T16:19:41;9.10;91.90
41720;DHT22;27405;53.316;-6.294;2023-02-26T16:22:28;9.00;92.40
41720;DHT22;27405;53.316;-6.294;2023-02-26T16:25:00;9.10;92.50
41720;DHT22;27405;53.316;-6.294;2023-02-26T16:27:28;9.20;92.40
41720;DHT22;27405;53.316;-6.294;2023-02-26T16:29:58;9.20;92.30
41720;DHT22;27405;53.316;-6.294;2023-02-26T16:32:27;9.20;92.30
41720;DHT22;27405;53.316;-6.294;2023-02-26T16:34:56;9.20;92.30
41720;DHT22;27405;53.316;-6.294;2023-02-26T16:42:45;9.60;92.10
41720;DHT22;27405;53.316;-6.294;2023-02-26T16:47:46;9.50;91.60
41720;DHT22;27405;53.316;-6.294;2023-02-26T16:50:17;9.40;91.50
41720;DHT22;27405;53.316;-6.294;2023-02-26T16:52:47;9.30;91.50
41720;DHT22;27405;53.316;-6.294;2023-02-26T16:55:16;9.30;91.60
41720;DHT22;27405;53.316;-6.294;2023-02-26T16:57:43;9.20;91.70
41720;DHT22;27405;53.316;-6.294;2023-02-26T17:00:20;9.20;91.90
41720;DHT22;27405;53.316;-6.294;2023-02-26T17:05:35;9.00;92.00
41720;DHT22;27405;53.316;-6.294;2023-02-26T17:08:19;8.90;92.00
41720;DHT22;27405;53.316;-6.294;2023-02-26T17:10:48;8.70;92.10
41720;DHT22;27405;53.316;-6.294;2023-02-26T17:13:19;8.60;92.20
41720;DHT22;27405;53.316;-6.294;2023-02-26T17:15:48;8.60;92.40
41720;DHT22;27405;53.316;-6.294;2023-02-26T17:18:16;8.50;92.50
41720;DHT22;27405;53.316;-6.294;2023-02-26T17:20:42;8.50;92.70
41720;DHT22;27405;53.316;-6.294;2023-02-26T17:23:13;8.50;92.90
41720;DHT22;27405;53.316;-6.294;2023-02-26T17:25:45;8.60;93.00
41720;DHT22;27405;53.316;-6.294;2023-02-26T17:28:23;8.60;93.10
41720;DHT22;27405;53.316;-6.294;2023-02-26T17:30:51;8.60;93.10
41720;DHT22;27405;53.316;-6.294;2023-02-26T17:33:17;8.50;93.10
41720;DHT22;27405;53.316;-6.294;2023-02-26T17:35:43;8.50;93.10
41720;DHT22;27405;53.316;-6.294;2023-02-26T17:38:10;8.50;93.10
41720;DHT22;27405;53.316;-6.294;2023-02-26T17:40:42;8.50;93.20
41720;DHT22;27405;53.316;-6.294;2023-02-26T17:43:08;8.50;93.30
41720;DHT22;27405;53.316;-6.294;2023-02-26T17:45:35;8.50;93.50
41720;DHT22;27405;53.316;-6.294;2023-02-26T17:48:01;8.50;93.60
41720;DHT22;27405;53.316;-6.294;2023-02-26T17:50:47;8.50;93.60
41720;DHT22;27405;53.316;-6.294;2023-02-26T17:53:15;8.50;93.80
41720;DHT22;27405;53.316;-6.294;2023-02-26T17:55:41;8.50;93.90
41720;DHT22;27405;53.316;-6.294;2023-02-26T17:58:27;8.40;93.90
41720;DHT22;27405;53.316;-6.294;2023-02-26T18:00:53;8.40;94.00
41720;DHT22;27405;53.316;-6.294;2023-02-26T18:03:20;8.40;94.00
41720;DHT22;27405;53.316;-6.294;2023-02-26T18:05:47;8.40;94.10
41720;DHT22;27405;53.316;-6.294;2023-02-26T18:10:47;8.40;94.40
41720;DHT22;27405;53.316;-6.294;2023-02-26T18:13:13;8.40;94.40
41720;DHT22;27405;53.316;-6.294;2023-02-26T18:15:38;8.40;94.50
41720;DHT22;27405;53.316;-6.294;2023-02-26T18:18:04;8.40;94.60
41720;DHT22;27405;53.316;-6.294;2023-02-26T18:20:32;8.40;94.50
41720;DHT22;27405;53.316;-6.294;2023-02-26T18:22:58;8.40;94.60
41720;DHT22;27405;53.316;-6.294;2023-02-26T18:25:25;8.30;94.60
41720;DHT22;27405;53.316;-6.294;2023-02-26T18:27:54;8.30;94.80
41720;DHT22;27405;53.316;-6.294;2023-02-26T18:30:30;8.30;94.90
41720;DHT22;27405;53.316;-6.294;2023-02-26T18:32:56;8.30;94.90
41720;DHT22;27405;53.316;-6.294;2023-02-26T18:35:23;8.20;94.90
41720;DHT22;27405;53.316;-6.294;2023-02-26T18:37:51;8.10;95.10
41720;DHT22;27405;53.316;-6.294;2023-02-26T18:40:20;8.00;95.20
41720;DHT22;27405;53.316;-6.294;2023-02-26T18:42:49;7.90;95.30
41720;DHT22;27405;53.316;-6.294;2023-02-26T18:45:14;7.80;95.40
41720;DHT22;27405;53.316;-6.294;2023-02-26T18:47:41;7.70;95.60
41720;DHT22;27405;53.316;-6.294;2023-02-26T18:50:10;7.60;95.70
41720;DHT22;27405;53.316;-6.294;2023-02-26T18:52:36;7.50;95.90
41720;DHT22;27405;53.316;-6.294;2023-02-26T18:55:02;7.50;96.00
41720;DHT22;27405;53.316;-6.294;2023-02-26T18:57:29;7.40;96.20
41720;DHT22;27405;53.316;-6.294;2023-02-26T18:59:55;7.30;96.30
41720;DHT22;27405;53.316;-6.294;2023-02-26T19:02:20;7.30;96.50
41720;DHT22;27405;53.316;-6.294;2023-02-26T19:04:46;7.20;96.70